sensor_id;sensor_type;location;lat;lon;timestamp;pressure;altitude;pressure_sealevel;temperature;humidity
51315;BME280;65787;59.922;10.742;2023-07-28T00:01:47;99552.59;;;25.93;28.70
51315;BME280;65787;59.922;10.742;2023-07-28T00:04:12;99547.72;;;25.89;28.88
51315;BME280;65787;59.922;10.742;2023-07-28T00:06:37;99550.63;;;25.84;28.97
51315;BME280;65787;59.922;10.742;2023-07-28T00:09:03;99555.13;;;25.80;29.10
51315;BME280;65787;59.922;10.742;2023-07-28T00:11:28;99556.75;;;25.81;29.31
51315;BME280;65787;59.922;10.742;2023-07-28T00:13:53;99558.19;;;25.79;29.37
51315;BME280;65787;59.922;10.742;2023-07-28T00:16:19;99563.06;;;25.82;29.43
51315;BME280;65787;59.922;10.742;2023-07-28T00:18:44;99553.00;;;25.77;29.30
51315;BME280;65787;59.922;10.742;2023-07-28T00:21:09;99557.22;;;25.75;29.75
51315;BME280;65787;59.922;10.742;2023-07-28T00:23:35;99555.22;;;25.66;30.11
51315;BME280;65787;59.922;10.742;2023-07-28T00:26:00;99556.19;;;25.62;29.55
51315;BME280;65787;59.922;10.742;2023-07-28T00:28:25;99558.94;;;25.62;29.70
51315;BME280;65787;59.922;10.742;2023-07-28T00:30:51;99560.22;;;25.56;30.52
51315;BME280;65787;59.922;10.742;2023-07-28T00:33:16;99552.41;;;25.49;29.64
51315;BME280;65787;59.922;10.742;2023-07-28T00:35:42;99559.03;;;25.48;30.83
51315;BME280;65787;59.922;10.742;2023-07-28T00:38:08;99560.47;;;25.45;30.55
51315;BME280;65787;59.922;10.742;2023-07-28T00:40:34;99555.16;;;25.49;30.40
51315;BME280;65787;59.922;10.742;2023-07-28T00:42:59;99554.53;;;25.52;30.06
51315;BME280;65787;59.922;10.742;2023-07-28T00:45:25;99559.69;;;25.54;30.22
51315;BME280;65787;59.922;10.742;2023-07-28T00:47:50;99553.56;;;25.57;29.99
51315;BME280;65787;59.922;10.742;2023-07-28T00:50:17;99552.59;;;25.53;30.59
51315;BME280;65787;59.922;10.742;2023-07-28T00:52:43;99557.28;;;25.52;30.22
51315;BME280;65787;59.922;10.742;2023-07-28T00:55:08;99559.19;;;25.52;30.07
51315;BME280;65787;59.922;10.742;2023-07-28T00:57:34;99559.03;;;25.48;30.47
51315;BME280;65787;59.922;10.742;2023-07-28T00:59:59;99554.66;;;25.47;31.23
51315;BME280;65787;59.922;10.742;2023-07-28T01:02:25;99553.34;;;25.44;31.17
51315;BME280;65787;59.922;10.742;2023-07-28T01:04:51;99554.00;;;25.50;30.88
51315;BME280;65787;59.922;10.742;2023-07-28T01:10:24;99543.03;;;25.50;30.51
51315;BME280;65787;59.922;10.742;2023-07-28T01:12:51;99543.03;;;25.50;30.85
51315;BME280;65787;59.922;10.742;2023-07-28T01:15:16;99550.28;;;25.46;30.18
51315;BME280;65787;59.922;10.742;2023-07-28T01:17:42;99551.72;;;25.43;30.79
51315;BME280;65787;59.922;10.742;2023-07-28T01:20:07;99549.13;;;25.38;31.13
51315;BME280;65787;59.922;10.742;2023-07-28T01:22:46;99541.19;;;25.37;31.01
51315;BME280;65787;59.922;10.742;2023-07-28T01:25:28;99543.44;;;25.35;30.76
51315;BME280;65787;59.922;10.742;2023-07-28T01:27:57;99551.81;;;25.29;31.00
51315;BME280;65787;59.922;10.742;2023-07-28T01:30:23;99547.44;;;25.28;30.63
51315;BME280;65787;59.922;10.742;2023-07-28T01:32:51;99550.81;;;25.25;31.32
51315;BME280;65787;59.922;10.742;2023-07-28T01:35:18;99548.56;;;25.27;30.69
51315;BME280;65787;59.922;10.742;2023-07-28T01:37:43;99545.31;;;25.25;30.82
51315;BME280;65787;59.922;10.742;2023-07-28T01:40:10;99543.06;;;25.27;30.85
51315;BME280;65787;59.922;10.742;2023-07-28T01:42:35;99546.31;;;25.29;30.57
51315;BME280;65787;59.922;10.742;2023-07-28T01:45:01;99552.16;;;25.28;31.17
51315;BME280;65787;59.922;10.742;2023-07-28T01:47:26;99549.72;;;25.26;30.89
51315;BME280;65787;59.922;10.742;2023-07-28T01:49:51;99549.81;;;25.21;31.22
51315;BME280;65787;59.922;10.742;2023-07-28T01:52:16;99548.81;;;25.17;31.01
51315;BME280;65787;59.922;10.742;2023-07-28T01:54:42;99556.88;;;25.14;31.71
51315;BME280;65787;59.922;10.742;2023-07-28T01:57:07;99553.31;;;25.13;31.58
51315;BME280;65787;59.922;10.742;2023-07-28T01:59:32;99551.69;;;25.12;31.25
51315;BME280;65787;59.922;10.742;2023-07-28T02:01:58;99549.72;;;25.12;31.79
51315;BME280;65787;59.922;10.742;2023-07-28T02:04:23;99553.94;;;25.10;31.56
51315;BME280;65787;59.922;10.742;2023-07-28T02:06:49;99559.13;;;25.11;31.85
51315;BME280;65787;59.922;10.742;2023-07-28T02:09:14;99550.22;;;25.15;31.08
51315;BME280;65787;59.922;10.742;2023-07-28T02:11:39;99555.72;;;25.15;31.72
51315;BME280;65787;59.922;10.742;2023-07-28T02:14:04;99551.56;;;25.17;31.21
51315;BME280;65787;59.922;10.742;2023-07-28T02:16:30;99556.56;;;25.15;30.96
51315;BME280;65787;59.922;10.742;2023-07-28T02:18:57;99555.41;;;25.16;31.62
51315;BME280;65787;59.922;10.742;2023-07-28T02:21:22;99559.63;;;25.14;31.06
51315;BME280;65787;59.922;10.742;2023-07-28T02:23:49;99557.38;;;25.16;31.88
51315;BME280;65787;59.922;10.742;2023-07-28T02:26:15;99560.41;;;25.14;31.34
51315;BME280;65787;59.922;10.742;2023-07-28T02:28:40;99553.66;;;25.20;31.26
51315;BME280;65787;59.922;10.742;2023-07-28T02:31:05;99561.81;;;25.25;31.40
51315;BME280;65787;59.922;10.742;2023-07-28T02:33:30;99559.06;;;25.25;31.85
51315;BME280;65787;59.922;10.742;2023-07-28T02:36:00;99561.31;;;25.23;31.77
51315;BME280;65787;59.922;10.742;2023-07-28T02:38:25;99565.78;;;25.19;31.60
51315;BME280;65787;59.922;10.742;2023-07-28T02:40:51;99560.91;;;25.16;32.25
51315;BME280;65787;59.922;10.742;2023-07-28T02:43:16;99562.53;;;25.17;32.11
51315;BME280;65787;59.922;10.742;2023-07-28T02:45:42;99566.91;;;25.18;32.20
51315;BME280;65787;59.922;10.742;2023-07-28T02:48:07;99563.97;;;25.15;31.68
51315;BME280;65787;59.922;10.742;2023-07-28T02:50:32;99563.66;;;25.16;32.28
51315;BME280;65787;59.922;10.742;2023-07-28T02:52:58;99573.41;;;25.22;31.77
51315;BME280;65787;59.922;10.742;2023-07-28T02:55:23;99581.34;;;25.24;32.43
51315;BME280;65787;59.922;10.742;2023-07-28T02:57:48;99578.38;;;25.20;32.26
51315;BME280;65787;59.922;10.742;2023-07-28T03:00:13;99578.38;;;25.20;31.72
51315;BME280;65787;59.922;10.742;2023-07-28T03:02:39;99579.53;;;25.19;32.60
51315;BME280;65787;59.922;10.742;2023-07-28T03:05:04;99577.41;;;25.16;31.92
51315;BME280;65787;59.922;10.742;2023-07-28T03:07:30;99579.66;;;25.14;32.44
51315;BME280;65787;59.922;10.742;2023-07-28T03:09:55;99530.34;;;24.86;32.34
51315;BME280;65787;59.922;10.742;2023-07-28T03:12:21;99586.84;;;25.24;32.33
51315;BME280;65787;59.922;10.742;2023-07-28T03:14:46;99588.50;;;25.25;32.51
51315;BME280;65787;59.922;10.742;2023-07-28T03:17:11;99588.78;;;25.23;32.76
51315;BME280;65787;59.922;10.742;2023-07-28T03:19:36;99586.72;;;25.29;32.55
51315;BME280;65787;59.922;10.742;2023-07-28T03:22:02;99594.16;;;25.28;32.59
51315;BME280;65787;59.922;10.742;2023-07-28T03:24:27;99597.72;;;25.29;33.01
51315;BME280;65787;59.922;10.742;2023-07-28T03:26:52;99603.53;;;25.27;33.74
51315;BME280;65787;59.922;10.742;2023-07-28T03:29:17;99601.28;;;25.29;32.85
51315;BME280;65787;59.922;10.742;2023-07-28T03:31:43;99602.91;;;25.30;33.77
51315;BME280;65787;59.922;10.742;2023-07-28T03:34:08;99600.47;;;25.29;33.48
51315;BME280;65787;59.922;10.742;2023-07-28T03:36:34;99600.66;;;25.33;33.52
51315;BME280;65787;59.922;10.742;2023-07-28T03:38:59;99606.97;;;25.33;33.71
51315;BME280;65787;59.922;10.742;2023-07-28T03:41:24;99602.28;;;25.34;34.22
51315;BME280;65787;59.922;10.742;2023-07-28T03:43:50;99597.91;;;25.33;34.02
51315;BME280;65787;59.922;10.742;2023-07-28T03:46:15;99604.66;;;25.26;33.34
51315;BME280;65787;59.922;10.742;2023-07-28T03:48:40;99600.28;;;25.25;33.54
51315;BME280;65787;59.922;10.742;2023-07-28T03:51:05;99605.16;;;25.28;33.68
51315;BME280;65787;59.922;10.742;2023-07-28T03:53:31;99605.16;;;25.28;33.66
51315;BME280;65787;59.922;10.742;2023-07-28T03:55:56;99607.41;;;25.26;33.90
51315;BME280;65787;59.922;10.742;2023-07-28T03:58:26;99611.78;;;25.27;33.52
51315;BME280;65787;59.922;10.742;2023-07-28T04:00:52;99608.53;;;25.25;33.95
51315;BME280;65787;59.922;10.742;2023-07-28T04:03:18;99610.47;;;25.25;34.71
51315;BME280;65787;59.922;10.742;2023-07-28T04:05:43;99607.72;;;25.25;34.45
51315;BME280;65787;59.922;10.742;2023-07-28T04:08:08;99617.91;;;25.24;34.81
51315;BME280;65787;59.922;10.742;2023-07-28T04:10:34;99621.16;;;25.26;33.96
51315;BME280;65787;59.922;10.742;2023-07-28T04:12:59;99625.22;;;25.29;34.51
51315;BME280;65787;59.922;10.742;2023-07-28T04:15:24;99626.19;;;25.33;34.01
51315;BME280;65787;59.922;10.742;2023-07-28T04:17:49;99628.16;;;25.33;34.44
51315;BME280;65787;59.922;10.742;2023-07-28T04:20:15;99630.59;;;25.34;34.25
51315;BME280;65787;59.922;10.742;2023-07-28T04:22:40;99634.13;;;25.35;34.00
51315;BME280;65787;59.922;10.742;2023-07-28T04:25:05;99635.13;;;25.39;33.85
51315;BME280;65787;59.922;10.742;2023-07-28T04:27:31;99642.38;;;25.35;34.22
51315;BME280;65787;59.922;10.742;2023-07-28T04:29:56;99640.59;;;25.30;34.81
51315;BME280;65787;59.922;10.742;2023-07-28T04:32:21;99643.66;;;25.28;34.62
51315;BME280;65787;59.922;10.742;2023-07-28T04:34:47;99640.63;;;25.39;34.09
51315;BME280;65787;59.922;10.742;2023-07-28T04:37:12;99645.19;;;25.43;33.69
51315;BME280;65787;59.922;10.742;2023-07-28T04:39:38;99641.50;;;25.48;34.19
51315;BME280;65787;59.922;10.742;2023-07-28T04:42:03;99641.38;;;25.53;33.64
51315;BME280;65787;59.922;10.742;2023-07-28T04:44:28;99646.88;;;25.53;34.42
51315;BME280;65787;59.922;10.742;2023-07-28T04:46:53;99646.38;;;25.51;34.42
51315;BME280;65787;59.922;10.742;2023-07-28T04:49:19;99646.31;;;25.42;34.34
51315;BME280;65787;59.922;10.742;2023-07-28T04:51:46;99639.41;;;25.45;33.66
51315;BME280;65787;59.922;10.742;2023-07-28T04:54:11;99647.25;;;25.38;34.82
51315;BME280;65787;59.922;10.742;2023-07-28T04:56:37;99640.63;;;25.39;34.21
51315;BME280;65787;59.922;10.742;2023-07-28T04:59:02;99639.25;;;25.27;34.80
51315;BME280;65787;59.922;10.742;2023-07-28T05:01:27;99646.69;;;25.27;35.46
51315;BME280;65787;59.922;10.742;2023-07-28T05:03:53;99633.56;;;25.24;35.69
51315;BME280;65787;59.922;10.742;2023-07-28T05:06:18;99643.44;;;25.25;35.58
51315;BME280;65787;59.922;10.742;2023-07-28T05:08:43;99641.00;;;25.23;35.56
51315;BME280;65787;59.922;10.742;2023-07-28T05:11:08;99648.66;;;25.26;35.81
51315;BME280;65787;59.922;10.742;2023-07-28T05:13:34;99644.63;;;25.33;35.58
51315;BME280;65787;59.922;10.742;2023-07-28T05:15:59;99648.69;;;25.35;35.66
51315;BME280;65787;59.922;10.742;2023-07-28T05:18:25;99649.03;;;25.34;35.89
51315;BME280;65787;59.922;10.742;2023-07-28T05:20:50;99652.16;;;25.41;35.96
51315;BME280;65787;59.922;10.742;2023-07-28T05:23:15;99653.13;;;25.45;36.19
51315;BME280;65787;59.922;10.742;2023-07-28T05:25:41;99655.88;;;25.45;35.97
51315;BME280;65787;59.922;10.742;2023-07-28T05:28:06;99652.50;;;25.48;35.11
51315;BME280;65787;59.922;10.742;2023-07-28T05:30:31;99664.06;;;25.59;34.70
51315;BME280;65787;59.922;10.742;2023-07-28T05:32:56;99661.56;;;25.71;35.13
51315;BME280;65787;59.922;10.742;2023-07-28T05:35:22;99662.84;;;25.74;35.24
51315;BME280;65787;59.922;10.742;2023-07-28T05:37:47;99662.53;;;25.75;35.20
51315;BME280;65787;59.922;10.742;2023-07-28T05:40:12;99658.34;;;25.78;34.80
51315;BME280;65787;59.922;10.742;2023-07-28T05:42:38;99668.09;;;25.84;35.40
51315;BME280;65787;59.922;10.742;2023-07-28T05:45:03;99673.34;;;25.94;35.62
51315;BME280;65787;59.922;10.742;2023-07-28T05:47:29;99671.91;;;25.97;35.88
51315;BME280;65787;59.922;10.742;2023-07-28T05:49:54;99676.94;;;26.03;35.38
51315;BME280;65787;59.922;10.742;2023-07-28T05:52:19;99680.53;;;26.04;35.29
51315;BME280;65787;59.922;10.742;2023-07-28T05:54:45;99676.94;;;26.03;34.86
51315;BME280;65787;59.922;10.742;2023-07-28T05:57:10;99679.22;;;26.01;35.10
51315;BME280;65787;59.922;10.742;2023-07-28T05:59:36;99678.09;;;26.02;34.87
51315;BME280;65787;59.922;10.742;2023-07-28T06:02:01;99679.38;;;26.05;34.64
51315;BME280;65787;59.922;10.742;2023-07-28T06:04:26;99676.31;;;26.06;34.73
51315;BME280;65787;59.922;10.742;2023-07-28T06:06:52;99675.84;;;26.04;34.97
51315;BME280;65787;59.922;10.742;2023-07-28T06:09:17;99678.47;;;26.10;35.40
51315;BME280;65787;59.922;10.742;2023-07-28T06:11:42;99682.19;;;26.14;35.39
51315;BME280;65787;59.922;10.742;2023-07-28T06:14:08;99683.47;;;26.16;35.34
51315;BME280;65787;59.922;10.742;2023-07-28T06:16:33;99673.81;;;26.19;35.37
51315;BME280;65787;59.922;10.742;2023-07-28T06:18:58;99682.06;;;26.19;35.29
51315;BME280;65787;59.922;10.742;2023-07-28T06:21:24;99683.34;;;26.21;35.00
51315;BME280;65787;59.922;10.742;2023-07-28T06:23:49;99685.13;;;26.26;35.34
51315;BME280;65787;59.922;10.742;2023-07-28T06:26:15;99692.81;;;26.38;34.38
51315;BME280;65787;59.922;10.742;2023-07-28T06:28:40;99686.34;;;26.42;34.14
51315;BME280;65787;59.922;10.742;2023-07-28T06:31:06;99702.22;;;26.45;34.38
51315;BME280;65787;59.922;10.742;2023-07-28T06:33:31;99689.31;;;26.55;34.69
51315;BME280;65787;59.922;10.742;2023-07-28T06:35:57;99694.03;;;26.63;34.40
51315;BME280;65787;59.922;10.742;2023-07-28T06:38:22;99690.34;;;26.76;34.46
51315;BME280;65787;59.922;10.742;2023-07-28T06:40:49;99682.75;;;26.91;34.18
51315;BME280;65787;59.922;10.742;2023-07-28T06:43:14;99690.22;;;26.90;34.79
51315;BME280;65787;59.922;10.742;2023-07-28T06:45:39;99685.97;;;26.93;34.44
51315;BME280;65787;59.922;10.742;2023-07-28T06:48:06;99688.25;;;26.91;34.16
51315;BME280;65787;59.922;10.742;2023-07-28T06:50:31;99688.09;;;26.87;34.61
51315;BME280;65787;59.922;10.742;2023-07-28T06:52:57;99689.25;;;26.86;33.87
51315;BME280;65787;59.922;10.742;2023-07-28T06:55:22;99688.56;;;26.89;34.35
51315;BME280;65787;59.922;10.742;2023-07-28T06:57:48;99693.94;;;26.94;34.10
51315;BME280;65787;59.922;10.742;2023-07-28T07:00:14;99695.25;;;26.97;34.25
51315;BME280;65787;59.922;10.742;2023-07-28T07:02:40;99695.25;;;26.97;34.59
51315;BME280;65787;59.922;10.742;2023-07-28T07:05:05;99695.88;;;26.94;34.28
51315;BME280;65787;59.922;10.742;2023-07-28T07:07:32;99687.78;;;26.97;35.10
51315;BME280;65787;59.922;10.742;2023-07-28T07:09:57;99692.81;;;27.04;34.83
51315;BME280;65787;59.922;10.742;2023-07-28T07:12:22;99692.19;;;27.16;34.00
51315;BME280;65787;59.922;10.742;2023-07-28T07:14:48;99694.44;;;27.14;33.49
51315;BME280;65787;59.922;10.742;2023-07-28T07:17:13;99692.97;;;27.16;33.71
51315;BME280;65787;59.922;10.742;2023-07-28T07:19:38;99704.16;;;27.11;33.57
51315;BME280;65787;59.922;10.742;2023-07-28T07:22:04;99704.84;;;27.26;34.94
51315;BME280;65787;59.922;10.742;2023-07-28T07:24:29;99703.72;;;27.44;33.45
51315;BME280;65787;59.922;10.742;2023-07-28T07:26:55;99706.16;;;27.37;32.98
51315;BME280;65787;59.922;10.742;2023-07-28T07:29:20;99703.88;;;27.39;33.03
51315;BME280;65787;59.922;10.742;2023-07-28T07:31:46;99703.56;;;27.40;32.55
51315;BME280;65787;59.922;10.742;2023-07-28T07:34:11;99702.72;;;27.49;32.88
51315;BME280;65787;59.922;10.742;2023-07-28T07:36:36;99706.31;;;27.49;32.49
51315;BME280;65787;59.922;10.742;2023-07-28T07:39:01;99717.81;;;27.51;32.57
51315;BME280;65787;59.922;10.742;2023-07-28T07:41:27;99712.94;;;27.48;32.72
51315;BME280;65787;59.922;10.742;2023-07-28T07:43:54;99716.66;;;27.52;33.08
51315;BME280;65787;59.922;10.742;2023-07-28T07:46:19;99720.88;;;27.23;33.18
51315;BME280;65787;59.922;10.742;2023-07-28T07:48:45;99713.09;;;27.17;33.25
51315;BME280;65787;59.922;10.742;2023-07-28T07:51:10;99715.69;;;27.13;33.24
51315;BME280;65787;59.922;10.742;2023-07-28T07:53:36;99721.19;;;27.04;32.98
51315;BME280;65787;59.922;10.742;2023-07-28T07:56:04;99715.03;;;27.16;33.36
51315;BME280;65787;59.922;10.742;2023-07-28T07:58:30;99714.38;;;27.11;33.23
51315;BME280;65787;59.922;10.742;2023-07-28T08:00:55;99719.44;;;27.17;33.03
51315;BME280;65787;59.922;10.742;2023-07-28T08:03:21;99726.69;;;27.13;32.73
51315;BME280;65787;59.922;10.742;2023-07-28T08:05:46;99724.78;;;27.14;32.66
51315;BME280;65787;59.922;10.742;2023-07-28T08:08:11;99734.06;;;27.27;32.90
51315;BME280;65787;59.922;10.742;2023-07-28T08:10:38;99722.19;;;27.26;32.48
51315;BME280;65787;59.922;10.742;2023-07-28T08:13:04;99731.31;;;27.53;32.56
51315;BME280;65787;59.922;10.742;2023-07-28T08:15:29;99734.06;;;27.44;32.73
51315;BME280;65787;59.922;10.742;2023-07-28T08:17:55;99735.28;;;27.03;33.21
51315;BME280;65787;59.922;10.742;2023-07-28T08:20:20;99733.00;;;26.88;32.70
51315;BME280;65787;59.922;10.742;2023-07-28T08:22:45;99736.06;;;26.95;32.46
51315;BME280;65787;59.922;10.742;2023-07-28T08:25:10;99728.16;;;27.02;32.48
51315;BME280;65787;59.922;10.742;2023-07-28T08:27:36;99744.19;;;27.00;32.47
51315;BME280;65787;59.922;10.742;2023-07-28T08:30:02;99749.84;;;26.86;32.24
51315;BME280;65787;59.922;10.742;2023-07-28T08:32:27;99740.44;;;26.78;32.64
51315;BME280;65787;59.922;10.742;2023-07-28T08:34:53;99738.97;;;26.81;32.71
51315;BME280;65787;59.922;10.742;2023-07-28T08:37:18;99746.63;;;27.01;32.81
51315;BME280;65787;59.922;10.742;2023-07-28T08:39:43;99746.97;;;27.09;32.55
51315;BME280;65787;59.922;10.742;2023-07-28T08:42:08;99747.09;;;26.95;32.85
51315;BME280;65787;59.922;10.742;2023-07-28T08:44:34;99735.28;;;27.03;32.84
51315;BME280;65787;59.922;10.742;2023-07-28T08:47:00;99737.91;;;27.08;33.25
51315;BME280;65787;59.922;10.742;2023-07-28T08:49:25;99738.38;;;27.19;33.80
51315;BME280;65787;59.922;10.742;2023-07-28T08:51:51;99741.97;;;27.19;33.68
51315;BME280;65787;59.922;10.742;2023-07-28T08:54:17;99739.84;;;27.16;33.70
51315;BME280;65787;59.922;10.742;2023-07-28T08:56:43;99734.66;;;27.06;33.75
51315;BME280;65787;59.922;10.742;2023-07-28T08:59:08;99729.47;;;27.04;33.76
51315;BME280;65787;59.922;10.742;2023-07-28T09:01:38;99729.63;;;26.99;34.19
51315;BME280;65787;59.922;10.742;2023-07-28T09:04:08;99733.84;;;27.14;33.78
51315;BME280;65787;59.922;10.742;2023-07-28T09:06:34;99741.78;;;27.07;34.14
51315;BME280;65787;59.922;10.742;2023-07-28T09:08:59;99740.31;;;27.10;34.61
51315;BME280;65787;59.922;10.742;2023-07-28T09:11:25;99736.94;;;27.21;34.23
51315;BME280;65787;59.922;10.742;2023-07-28T09:13:54;99744.06;;;27.05;33.97
51315;BME280;65787;59.922;10.742;2023-07-28T09:16:20;99739.81;;;27.08;34.13
51315;BME280;65787;59.922;10.742;2023-07-28T09:18:47;99727.84;;;27.12;34.31
51315;BME280;65787;59.922;10.742;2023-07-28T09:21:21;99729.97;;;27.24;33.91
51315;BME280;65787;59.922;10.742;2023-07-28T09:23:47;99724.16;;;27.43;33.88
51315;BME280;65787;59.922;10.742;2023-07-28T09:26:13;99730.66;;;27.47;33.73
51315;BME280;65787;59.922;10.742;2023-07-28T09:28:39;99726.09;;;27.51;33.61
51315;BME280;65787;59.922;10.742;2023-07-28T09:31:04;99729.03;;;27.46;33.62
51315;BME280;65787;59.922;10.742;2023-07-28T09:33:31;99736.63;;;27.58;33.72
51315;BME280;65787;59.922;10.742;2023-07-28T09:35:57;99731.63;;;27.51;33.29
51315;BME280;65787;59.922;10.742;2023-07-28T09:38:22;99727.56;;;27.57;33.45
51315;BME280;65787;59.922;10.742;2023-07-28T09:40:49;99732.09;;;27.53;33.37
51315;BME280;65787;59.922;10.742;2023-07-28T09:43:14;99728.88;;;27.60;33.56
51315;BME280;65787;59.922;10.742;2023-07-28T09:45:40;99719.28;;;27.40;33.61
51315;BME280;65787;59.922;10.742;2023-07-28T09:48:05;99726.75;;;27.66;33.85
51315;BME280;65787;59.922;10.742;2023-07-28T09:50:32;99726.06;;;27.69;33.33
51315;BME280;65787;59.922;10.742;2023-07-28T09:52:59;99723.63;;;27.76;33.30
51315;BME280;65787;59.922;10.742;2023-07-28T09:55:27;99721.50;;;27.73;33.15
51315;BME280;65787;59.922;10.742;2023-07-28T09:57:54;99717.00;;;27.68;33.34
51315;BME280;65787;59.922;10.742;2023-07-28T10:00:20;99712.91;;;27.83;33.66
51315;BME280;65787;59.922;10.742;2023-07-28T10:02:46;99719.91;;;27.72;33.46
51315;BME280;65787;59.922;10.742;2023-07-28T10:05:11;99715.22;;;27.90;33.26
51315;BME280;65787;59.922;10.742;2023-07-28T10:07:41;99712.91;;;27.83;33.33
51315;BME280;65787;59.922;10.742;2023-07-28T10:10:07;99699.75;;;27.89;33.47
51315;BME280;65787;59.922;10.742;2023-07-28T10:12:45;99706.56;;;28.00;33.13
51315;BME280;65787;59.922;10.742;2023-07-28T10:15:14;99704.72;;;28.22;32.75
51315;BME280;65787;59.922;10.742;2023-07-28T10:17:44;99711.50;;;28.24;32.58
51315;BME280;65787;59.922;10.742;2023-07-28T10:23:17;99698.13;;;28.44;32.84
51315;BME280;65787;59.922;10.742;2023-07-28T10:25:44;99702.00;;;28.81;33.00
51315;BME280;65787;59.922;10.742;2023-07-28T10:31:10;99694.31;;;29.08;32.54
51315;BME280;65787;59.922;10.742;2023-07-28T10:33:36;99696.75;;;29.51;31.82
51315;BME280;65787;59.922;10.742;2023-07-28T10:36:17;99699.28;;;29.78;29.48
51315;BME280;65787;59.922;10.742;2023-07-28T10:38:43;99696.78;;;29.97;30.59
51315;BME280;65787;59.922;10.742;2023-07-28T10:41:12;99690.28;;;29.81;29.29
51315;BME280;65787;59.922;10.742;2023-07-28T10:43:38;99693.66;;;29.86;28.45
51315;BME280;65787;59.922;10.742;2023-07-28T10:46:05;99685.31;;;29.74;28.24
51315;BME280;65787;59.922;10.742;2023-07-28T10:48:31;99693.69;;;29.65;29.61
51315;BME280;65787;59.922;10.742;2023-07-28T10:50:56;99692.56;;;29.45;29.63
51315;BME280;65787;59.922;10.742;2023-07-28T10:53:22;99700.59;;;29.59;29.98
51315;BME280;65787;59.922;10.742;2023-07-28T10:55:47;99693.72;;;29.44;30.13
51315;BME280;65787;59.922;10.742;2023-07-28T10:58:12;99694.13;;;29.55;29.92
51315;BME280;65787;59.922;10.742;2023-07-28T11:00:37;99695.63;;;29.86;30.22
51315;BME280;65787;59.922;10.742;2023-07-28T11:03:03;99699.31;;;29.90;30.11
51315;BME280;65787;59.922;10.742;2023-07-28T11:05:29;99691.59;;;29.96;30.12
51315;BME280;65787;59.922;10.742;2023-07-28T11:07:55;99691.97;;;30.31;30.99
51315;BME280;65787;59.922;10.742;2023-07-28T11:10:21;99700.78;;;30.58;29.00
51315;BME280;65787;59.922;10.742;2023-07-28T11:12:48;99683.66;;;30.80;31.40
51315;BME280;65787;59.922;10.742;2023-07-28T11:15:14;99679.25;;;31.04;29.65
51315;BME280;65787;59.922;10.742;2023-07-28T11:17:40;99678.72;;;31.26;29.22
51315;BME280;65787;59.922;10.742;2023-07-28T11:20:27;99689.97;;;31.18;28.24
51315;BME280;65787;59.922;10.742;2023-07-28T11:22:56;99688.91;;;31.22;27.93
51315;BME280;65787;59.922;10.742;2023-07-28T11:25:22;99680.53;;;31.35;28.23
51315;BME280;65787;59.922;10.742;2023-07-28T11:27:48;99695.41;;;31.55;27.73
51315;BME280;65787;59.922;10.742;2023-07-28T11:30:13;99676.19;;;31.78;28.59
51315;BME280;65787;59.922;10.742;2023-07-28T11:32:39;99679.13;;;32.13;27.93
51315;BME280;65787;59.922;10.742;2023-07-28T11:35:08;99672.91;;;32.36;27.82
51315;BME280;65787;59.922;10.742;2023-07-28T11:37:40;99676.84;;;32.51;26.82
51315;BME280;65787;59.922;10.742;2023-07-28T11:40:06;99682.19;;;32.75;26.15
51315;BME280;65787;59.922;10.742;2023-07-28T11:42:38;99682.78;;;33.20;28.09
51315;BME280;65787;59.922;10.742;2023-07-28T11:45:04;99689.38;;;33.51;25.36
51315;BME280;65787;59.922;10.742;2023-07-28T11:47:30;99681.44;;;33.53;24.53
51315;BME280;65787;59.922;10.742;2023-07-28T11:49:56;99675.06;;;33.72;25.65
51315;BME280;65787;59.922;10.742;2023-07-28T11:52:23;99676.31;;;34.21;25.29
51315;BME280;65787;59.922;10.742;2023-07-28T11:54:49;99676.75;;;34.46;23.38
51315;BME280;65787;59.922;10.742;2023-07-28T11:57:16;99684.19;;;34.65;22.11
51315;BME280;65787;59.922;10.742;2023-07-28T11:59:41;99668.97;;;34.85;22.90
51315;BME280;65787;59.922;10.742;2023-07-28T12:02:06;99686.31;;;34.72;22.16
51315;BME280;65787;59.922;10.742;2023-07-28T12:04:35;99676.06;;;34.79;23.11
51315;BME280;65787;59.922;10.742;2023-07-28T12:12:28;99689.53;;;34.24;23.47
51315;BME280;65787;59.922;10.742;2023-07-28T12:14:57;99692.28;;;34.47;23.91
51315;BME280;65787;59.922;10.742;2023-07-28T12:17:29;99695.34;;;34.65;23.39
51315;BME280;65787;59.922;10.742;2023-07-28T12:20:01;99709.66;;;34.63;23.67
51315;BME280;65787;59.922;10.742;2023-07-28T12:22:35;99697.22;;;34.57;23.41
51315;BME280;65787;59.922;10.742;2023-07-28T12:25:00;99690.19;;;34.67;22.47
51315;BME280;65787;59.922;10.742;2023-07-28T12:27:26;99701.34;;;34.94;22.89
51315;BME280;65787;59.922;10.742;2023-07-28T12:29:52;99694.31;;;35.34;25.39
51315;BME280;65787;59.922;10.742;2023-07-28T12:32:17;99706.53;;;35.56;23.91
51315;BME280;65787;59.922;10.742;2023-07-28T12:34:43;99694.00;;;35.76;22.92
51315;BME280;65787;59.922;10.742;2023-07-28T12:37:08;99691.69;;;35.82;22.83
51315;BME280;65787;59.922;10.742;2023-07-28T12:39:36;99692.22;;;35.98;23.01
51315;BME280;65787;59.922;10.742;2023-07-28T12:42:03;99685.94;;;36.12;23.07
51315;BME280;65787;59.922;10.742;2023-07-28T12:44:30;99695.66;;;36.70;23.61
51315;BME280;65787;59.922;10.742;2023-07-28T12:46:56;99694.63;;;37.07;23.00
51315;BME280;65787;59.922;10.742;2023-07-28T12:49:21;99693.16;;;37.38;21.61
51315;BME280;65787;59.922;10.742;2023-07-28T12:51:46;99684.81;;;37.56;24.33
51315;BME280;65787;59.922;10.742;2023-07-28T12:54:12;99693.31;;;37.89;21.34
51315;BME280;65787;59.922;10.742;2023-07-28T12:56:37;99690.91;;;38.05;20.65
51315;BME280;65787;59.922;10.742;2023-07-28T12:59:02;99678.13;;;38.51;20.97